Ashland, New Hampshire
Current Conditions -  °F | °C
As of 2:35 PM on Saturday 25 Oct 2014 (Local Time) from K1P1 Reporting Station
Clear Clear  
Wind Chill: 60°   Ceiling: Unl
Heat Index: 60°   Visibility: 10mi
Dew Point: 43°   Wind: 5mph
Humidity: 53%   Direction: 240°WSW
Pressure: 29.59"   Gusts: NA
Location:  43.7°N, 71.63°W
Report Text: K1P1 251835Z AUTO 24004KT 10SM CLR 16/06 A2959 RMK AO2 T01570062
Loading
Personal Weather Stations






























Interactive Weather Map New forecast layout! Learn more

10-Day Weather Forecast

Advertisements
Track Severe Weather on mobile